Terminal Aerodrome Forecast
Issued by NWS Atlanta, GA

Home | Current Version | Previous Version | Text Only | Print | Product List | Glossary On
Versions: 1 2 3 4 5 6 7 8 9 10 11 12 13 14 15 16 17 18 19 20 21 22 23 24 25 26 27 28 29 30 31 32 33 34
000
FTAK31 PAJN 301900 AAA
TAFAHN
TAF AMD
PAHN 301900Z 3019/3118 12007KT P6SM -RA BKN015 OVC040
     FM310300 10008KT P6SM VCSH SCT020 BKN035
     FM311200 11010KT 6SM -SHRA SCT025 OVC040
      AMD LTD TO CLD VIS AND WIND=

USA.gov is the U.S. government's official web portal to all federal, state and local government web resources and services.